sensor_id;sensor_type;location;lat;lon;timestamp;pressure;altitude;pressure_sealevel;temperature;humidity
56182;BME280;51963;46.052;14.544;2023-01-27T00:00:57;98051.13;;;1.36;82.60
56182;BME280;51963;46.052;14.544;2023-01-27T00:03:22;98047.56;;;1.37;83.06
56182;BME280;51963;46.052;14.544;2023-01-27T00:05:48;98049.91;;;1.40;82.87
56182;BME280;51963;46.052;14.544;2023-01-27T00:08:14;98049.91;;;1.40;83.47
56182;BME280;51963;46.052;14.544;2023-01-27T00:10:40;98039.34;;;1.31;83.68
56182;BME280;51963;46.052;14.544;2023-01-27T00:13:06;98042.22;;;1.28;83.79
56182;BME280;51963;46.052;14.544;2023-01-27T00:15:50;98050.56;;;1.22;84.28
56182;BME280;51963;46.052;14.544;2023-01-27T00:18:15;98044.81;;;1.28;84.88
56182;BME280;51963;46.052;14.544;2023-01-27T00:20:41;98042.34;;;1.37;84.39
56182;BME280;51963;46.052;14.544;2023-01-27T00:23:25;98043.19;;;1.27;85.09
56182;BME280;51963;46.052;14.544;2023-01-27T00:26:11;98039.63;;;1.28;85.64
56182;BME280;51963;46.052;14.544;2023-01-27T00:28:39;98041.13;;;1.21;86.16
56182;BME280;51963;46.052;14.544;2023-01-27T00:31:05;98040.03;;;1.34;86.02
56182;BME280;51963;46.052;14.544;2023-01-27T00:33:33;98033.28;;;1.31;86.08
56182;BME280;51963;46.052;14.544;2023-01-27T00:36:04;98032.88;;;1.26;86.50
56182;BME280;51963;46.052;14.544;2023-01-27T00:38:32;98048.50;;;1.26;86.60
56182;BME280;51963;46.052;14.544;2023-01-27T00:40:58;98041.78;;;1.33;86.53
56182;BME280;51963;46.052;14.544;2023-01-27T00:43:42;98041.78;;;1.33;87.26
56182;BME280;51963;46.052;14.544;2023-01-27T00:46:08;98043.59;;;1.33;86.93
56182;BME280;51963;46.052;14.544;2023-01-27T00:48:33;98041.81;;;1.23;86.99
56182;BME280;51963;46.052;14.544;2023-01-27T00:50:59;98034.94;;;1.22;86.80
56182;BME280;51963;46.052;14.544;2023-01-27T00:53:25;98037.13;;;1.17;87.48
56182;BME280;51963;46.052;14.544;2023-01-27T00:55:50;98029.19;;;1.09;87.61
56182;BME280;51963;46.052;14.544;2023-01-27T00:58:16;98045.34;;;1.12;87.63
56182;BME280;51963;46.052;14.544;2023-01-27T01:00:41;98040.56;;;1.08;87.70
56182;BME280;51963;46.052;14.544;2023-01-27T01:03:07;98038.34;;;1.03;87.52
56182;BME280;51963;46.052;14.544;2023-01-27T01:05:32;98034.94;;;1.02;88.76
56182;BME280;51963;46.052;14.544;2023-01-27T01:07:58;98040.13;;;1.02;88.05
56182;BME280;51963;46.052;14.544;2023-01-27T01:10:23;98041.78;;;1.04;87.88
56182;BME280;51963;46.052;14.544;2023-01-27T01:12:50;98032.75;;;1.08;88.36
56182;BME280;51963;46.052;14.544;2023-01-27T01:15:17;98030.00;;;1.09;87.68
56182;BME280;51963;46.052;14.544;2023-01-27T01:17:42;98031.38;;;1.04;88.18
56182;BME280;51963;46.052;14.544;2023-01-27T01:20:08;98029.03;;;1.00;89.47
56182;BME280;51963;46.052;14.544;2023-01-27T01:22:35;98040.13;;;1.12;88.14
56182;BME280;51963;46.052;14.544;2023-01-27T01:25:01;98029.03;;;1.10;88.12
56182;BME280;51963;46.052;14.544;2023-01-27T01:27:27;98030.81;;;1.10;88.06
56182;BME280;51963;46.052;14.544;2023-01-27T01:29:53;98031.38;;;1.04;88.61
56182;BME280;51963;46.052;14.544;2023-01-27T01:32:19;98035.19;;;0.99;88.79
56182;BME280;51963;46.052;14.544;2023-01-27T01:34:45;98026.31;;;1.12;88.38
56182;BME280;51963;46.052;14.544;2023-01-27T01:37:10;98019.84;;;1.06;88.70
56182;BME280;51963;46.052;14.544;2023-01-27T01:39:35;98025.88;;;0.97;89.23
56182;BME280;51963;46.052;14.544;2023-01-27T01:42:01;98026.44;;;1.00;89.55
56182;BME280;51963;46.052;14.544;2023-01-27T01:44:30;98026.44;;;1.00;89.63
56182;BME280;51963;46.052;14.544;2023-01-27T01:46:58;98023.16;;;0.98;90.14
56182;BME280;51963;46.052;14.544;2023-01-27T01:49:34;98026.16;;;1.04;89.71
56182;BME280;51963;46.052;14.544;2023-01-27T01:52:06;98018.75;;;0.99;90.57
56182;BME280;51963;46.052;14.544;2023-01-27T01:54:40;98019.31;;;1.02;90.36
56182;BME280;51963;46.052;14.544;2023-01-27T01:57:18;98029.19;;;1.09;90.40
56182;BME280;51963;46.052;14.544;2023-01-27T01:59:46;98009.84;;;1.01;90.79
56182;BME280;51963;46.052;14.544;2023-01-27T02:02:14;98020.13;;;1.03;91.06
56182;BME280;51963;46.052;14.544;2023-01-27T02:04:42;98019.84;;;0.96;91.60
56182;BME280;51963;46.052;14.544;2023-01-27T02:07:10;98022.03;;;0.91;91.39
56182;BME280;51963;46.052;14.544;2023-01-27T02:09:37;98021.50;;;0.97;91.18
56182;BME280;51963;46.052;14.544;2023-01-27T02:12:03;98012.72;;;0.98;90.60
56182;BME280;51963;46.052;14.544;2023-01-27T02:14:29;98012.16;;;0.95;90.47
56182;BME280;51963;46.052;14.544;2023-01-27T02:16:55;98014.91;;;0.93;90.26
56182;BME280;51963;46.052;14.544;2023-01-27T02:19:24;98014.22;;;0.91;90.51
56182;BME280;51963;46.052;14.544;2023-01-27T02:21:51;98009.03;;;0.91;90.18
56182;BME280;51963;46.052;14.544;2023-01-27T02:24:17;98016.84;;;0.91;89.38
56182;BME280;51963;46.052;14.544;2023-01-27T02:26:43;98010.13;;;0.98;89.55
56182;BME280;51963;46.052;14.544;2023-01-27T02:29:11;98009.13;;;0.80;90.26
56182;BME280;51963;46.052;14.544;2023-01-27T02:31:37;98008.19;;;0.91;89.74
56182;BME280;51963;46.052;14.544;2023-01-27T02:34:04;98004.75;;;0.80;89.04
56182;BME280;51963;46.052;14.544;2023-01-27T02:36:32;98010.09;;;0.88;88.92
56182;BME280;51963;46.052;14.544;2023-01-27T02:38:59;98004.47;;;0.83;88.97
56182;BME280;51963;46.052;14.544;2023-01-27T02:41:28;97998.72;;;0.90;89.57
56182;BME280;51963;46.052;14.544;2023-01-27T02:43:56;98000.53;;;0.89;89.01
56182;BME280;51963;46.052;14.544;2023-01-27T02:46:22;97999.72;;;0.98;89.25
56182;BME280;51963;46.052;14.544;2023-01-27T02:48:47;97991.09;;;1.08;89.00
56182;BME280;51963;46.052;14.544;2023-01-27T02:51:13;97995.88;;;1.12;88.96
56182;BME280;51963;46.052;14.544;2023-01-27T02:53:41;97984.63;;;1.02;88.41
56182;BME280;51963;46.052;14.544;2023-01-27T02:56:07;97997.09;;;0.88;89.30
56182;BME280;51963;46.052;14.544;2023-01-27T02:58:32;98001.91;;;0.93;89.27
56182;BME280;51963;46.052;14.544;2023-01-27T03:01:12;97989.44;;;0.87;89.94
56182;BME280;51963;46.052;14.544;2023-01-27T03:03:37;97986.13;;;0.85;89.07
56182;BME280;51963;46.052;14.544;2023-01-27T03:06:14;97984.22;;;0.87;89.70
56182;BME280;51963;46.052;14.544;2023-01-27T03:08:40;97992.00;;;0.77;91.04
56182;BME280;51963;46.052;14.544;2023-01-27T03:11:06;97997.91;;;0.89;90.56
56182;BME280;51963;46.052;14.544;2023-01-27T03:13:33;97996.53;;;0.85;90.02
56182;BME280;51963;46.052;14.544;2023-01-27T03:16:01;97991.19;;;0.86;90.71
56182;BME280;51963;46.052;14.544;2023-01-27T03:18:46;97989.16;;;0.90;90.40
56182;BME280;51963;46.052;14.544;2023-01-27T03:21:14;97996.28;;;0.88;90.05
56182;BME280;51963;46.052;14.544;2023-01-27T03:23:40;97989.44;;;0.87;90.88
56182;BME280;51963;46.052;14.544;2023-01-27T03:26:06;97990.25;;;0.97;90.72
56182;BME280;51963;46.052;14.544;2023-01-27T03:28:35;97988.88;;;0.93;90.85
56182;BME280;51963;46.052;14.544;2023-01-27T03:31:07;97982.44;;;0.87;90.71
56182;BME280;51963;46.052;14.544;2023-01-27T03:33:41;97983.00;;;0.91;91.49
56182;BME280;51963;46.052;14.544;2023-01-27T03:36:29;97989.00;;;0.82;90.99
56182;BME280;51963;46.052;14.544;2023-01-27T03:39:14;97976.00;;;0.82;91.09
56182;BME280;51963;46.052;14.544;2023-01-27T03:42:00;97993.09;;;0.75;91.62
56182;BME280;51963;46.052;14.544;2023-01-27T03:44:45;97981.75;;;0.76;92.50
56182;BME280;51963;46.052;14.544;2023-01-27T03:47:30;97993.78;;;0.77;91.20
56182;BME280;51963;46.052;14.544;2023-01-27T03:49:56;97980.63;;;0.68;91.48
56182;BME280;51963;46.052;14.544;2023-01-27T03:52:21;97985.84;;;0.68;90.59
56182;BME280;51963;46.052;14.544;2023-01-27T03:54:46;97985.00;;;0.68;90.53
56182;BME280;51963;46.052;14.544;2023-01-27T03:57:12;97982.28;;;0.69;89.93
56182;BME280;51963;46.052;14.544;2023-01-27T03:59:38;97983.09;;;0.70;90.25
56182;BME280;51963;46.052;14.544;2023-01-27T04:02:03;97974.88;;;0.75;89.90
56182;BME280;51963;46.052;14.544;2023-01-27T04:04:48;97991.84;;;0.69;89.68
56182;BME280;51963;46.052;14.544;2023-01-27T04:07:35;97990.78;;;0.71;89.83
56182;BME280;51963;46.052;14.544;2023-01-27T04:10:01;97991.56;;;0.62;90.01
56182;BME280;51963;46.052;14.544;2023-01-27T04:12:27;97998.16;;;0.66;90.18
56182;BME280;51963;46.052;14.544;2023-01-27T04:14:53;97998.25;;;0.55;90.63
56182;BME280;51963;46.052;14.544;2023-01-27T04:17:18;97994.81;;;0.54;91.28
56182;BME280;51963;46.052;14.544;2023-01-27T04:19:45;97995.66;;;0.55;90.61
56182;BME280;51963;46.052;14.544;2023-01-27T04:22:11;97986.06;;;0.55;90.43
56182;BME280;51963;46.052;14.544;2023-01-27T04:24:37;97978.69;;;0.51;89.46
56182;BME280;51963;46.052;14.544;2023-01-27T04:27:03;97983.88;;;0.51;89.26
56182;BME280;51963;46.052;14.544;2023-01-27T04:29:30;97984.31;;;0.56;88.78
56182;BME280;51963;46.052;14.544;2023-01-27T04:31:56;97981.28;;;0.51;88.57
56182;BME280;51963;46.052;14.544;2023-01-27T04:34:22;97981.41;;;0.49;87.85
56182;BME280;51963;46.052;14.544;2023-01-27T04:36:48;97983.47;;;0.46;87.15
56182;BME280;51963;46.052;14.544;2023-01-27T04:39:14;97978.41;;;0.54;86.99
56182;BME280;51963;46.052;14.544;2023-01-27T04:41:40;97984.72;;;0.61;86.06
56182;BME280;51963;46.052;14.544;2023-01-27T04:44:06;97986.63;;;0.59;86.39
56182;BME280;51963;46.052;14.544;2023-01-27T04:46:31;97986.91;;;0.56;86.28
56182;BME280;51963;46.052;14.544;2023-01-27T04:48:57;97983.34;;;0.57;85.71
56182;BME280;51963;46.052;14.544;2023-01-27T04:51:22;97978.41;;;0.54;85.73
56182;BME280;51963;46.052;14.544;2023-01-27T04:53:48;97987.13;;;0.43;86.23
56182;BME280;51963;46.052;14.544;2023-01-27T04:56:19;97992.22;;;0.45;86.48
56182;BME280;51963;46.052;14.544;2023-01-27T04:58:45;97996.78;;;0.62;85.87
56182;BME280;51963;46.052;14.544;2023-01-27T05:01:11;97991.44;;;0.64;85.86
56182;BME280;51963;46.052;14.544;2023-01-27T05:03:36;97992.66;;;0.60;85.77
56182;BME280;51963;46.052;14.544;2023-01-27T05:06:02;97997.84;;;0.60;85.49
56182;BME280;51963;46.052;14.544;2023-01-27T05:08:29;97990.34;;;0.66;85.63
56182;BME280;51963;46.052;14.544;2023-01-27T05:10:54;97988.56;;;0.57;85.20
56182;BME280;51963;46.052;14.544;2023-01-27T05:13:20;97993.22;;;0.63;84.35
56182;BME280;51963;46.052;14.544;2023-01-27T05:15:46;98001.97;;;0.62;84.69
56182;BME280;51963;46.052;14.544;2023-01-27T05:18:12;97989.94;;;0.61;84.79
56182;BME280;51963;46.052;14.544;2023-01-27T05:20:37;97999.66;;;0.59;84.36
56182;BME280;51963;46.052;14.544;2023-01-27T05:23:03;98001.00;;;0.53;85.31
56182;BME280;51963;46.052;14.544;2023-01-27T05:25:47;98001.69;;;0.55;84.81
56182;BME280;51963;46.052;14.544;2023-01-27T05:28:12;98000.88;;;0.65;84.95
56182;BME280;51963;46.052;14.544;2023-01-27T05:30:38;98001.28;;;0.60;84.88
56182;BME280;51963;46.052;14.544;2023-01-27T05:33:03;98002.78;;;0.53;85.70
56182;BME280;51963;46.052;14.544;2023-01-27T05:35:31;98006.34;;;0.52;85.45
56182;BME280;51963;46.052;14.544;2023-01-27T05:37:56;98002.09;;;0.51;85.87
56182;BME280;51963;46.052;14.544;2023-01-27T05:40:22;98005.28;;;0.64;85.34
56182;BME280;51963;46.052;14.544;2023-01-27T05:42:49;98007.31;;;0.61;85.74
56182;BME280;51963;46.052;14.544;2023-01-27T05:45:15;98008.69;;;0.55;85.71
56182;BME280;51963;46.052;14.544;2023-01-27T05:47:41;98007.94;;;0.43;87.32
56182;BME280;51963;46.052;14.544;2023-01-27T05:50:06;98008.78;;;0.43;87.74
56182;BME280;51963;46.052;14.544;2023-01-27T05:52:32;98011.63;;;0.40;88.06
56182;BME280;51963;46.052;14.544;2023-01-27T05:54:57;98016.22;;;0.58;87.32
56182;BME280;51963;46.052;14.544;2023-01-27T05:57:23;98002.47;;;0.46;87.39
56182;BME280;51963;46.052;14.544;2023-01-27T05:59:48;98009.47;;;0.46;87.85
56182;BME280;51963;46.052;14.544;2023-01-27T06:02:14;98014.13;;;0.52;87.28
56182;BME280;51963;46.052;14.544;2023-01-27T06:04:40;98014.41;;;0.49;87.57
56182;BME280;51963;46.052;14.544;2023-01-27T06:07:05;98013.56;;;0.38;87.53
56182;BME280;51963;46.052;14.544;2023-01-27T06:09:30;98016.69;;;0.32;87.65
56182;BME280;51963;46.052;14.544;2023-01-27T06:11:56;98009.56;;;0.34;88.25
56182;BME280;51963;46.052;14.544;2023-01-27T06:14:21;98009.31;;;0.37;88.37
56182;BME280;51963;46.052;14.544;2023-01-27T06:16:47;98015.63;;;0.45;88.54
56182;BME280;51963;46.052;14.544;2023-01-27T06:19:13;98008.09;;;0.41;88.07
56182;BME280;51963;46.052;14.544;2023-01-27T06:21:39;98008.59;;;0.35;87.17
56182;BME280;51963;46.052;14.544;2023-01-27T06:24:04;98011.91;;;0.37;87.90
56182;BME280;51963;46.052;14.544;2023-01-27T06:26:30;98012.59;;;0.39;88.81
56182;BME280;51963;46.052;14.544;2023-01-27T06:28:56;98016.41;;;0.35;89.31
56182;BME280;51963;46.052;14.544;2023-01-27T06:31:24;98016.22;;;0.58;88.69
56182;BME280;51963;46.052;14.544;2023-01-27T06:33:50;98019.50;;;0.60;87.95
56182;BME280;51963;46.052;14.544;2023-01-27T06:36:16;98018.50;;;0.41;88.32
56182;BME280;51963;46.052;14.544;2023-01-27T06:38:42;98028.53;;;0.56;88.35
56182;BME280;51963;46.052;14.544;2023-01-27T06:41:08;98026.31;;;0.51;88.41
56182;BME280;51963;46.052;14.544;2023-01-27T06:43:34;98026.09;;;0.64;88.69
56182;BME280;51963;46.052;14.544;2023-01-27T06:46:00;98033.63;;;0.67;87.28
56182;BME280;51963;46.052;14.544;2023-01-27T06:48:26;98034.53;;;0.56;88.19
56182;BME280;51963;46.052;14.544;2023-01-27T06:50:52;98033.72;;;0.56;88.07
56182;BME280;51963;46.052;14.544;2023-01-27T06:53:17;98030.69;;;0.51;88.22
56182;BME280;51963;46.052;14.544;2023-01-27T06:55:43;98032.88;;;0.46;89.08
56182;BME280;51963;46.052;14.544;2023-01-27T06:58:11;98043.34;;;0.65;88.04
56182;BME280;51963;46.052;14.544;2023-01-27T07:00:37;98038.56;;;0.70;87.34
56182;BME280;51963;46.052;14.544;2023-01-27T07:03:03;98031.56;;;0.61;87.76
56182;BME280;51963;46.052;14.544;2023-01-27T07:05:29;98034.81;;;0.53;88.36
56182;BME280;51963;46.052;14.544;2023-01-27T07:07:55;98039.84;;;0.45;88.42
56182;BME280;51963;46.052;14.544;2023-01-27T07:10:21;98042.16;;;0.38;88.55
56182;BME280;51963;46.052;14.544;2023-01-27T07:12:46;98046.56;;;0.48;87.65
56182;BME280;51963;46.052;14.544;2023-01-27T07:15:12;98049.56;;;0.43;88.47
56182;BME280;51963;46.052;14.544;2023-01-27T07:17:38;98045.72;;;0.37;88.20
56182;BME280;51963;46.052;14.544;2023-01-27T07:20:04;98043.75;;;0.29;87.94
56182;BME280;51963;46.052;14.544;2023-01-27T07:22:30;98047.19;;;0.30;87.53
56182;BME280;51963;46.052;14.544;2023-01-27T07:24:56;98053.94;;;0.42;86.96
56182;BME280;51963;46.052;14.544;2023-01-27T07:27:21;98044.94;;;0.47;86.70
56182;BME280;51963;46.052;14.544;2023-01-27T07:29:47;98050.50;;;0.42;86.57
56182;BME280;51963;46.052;14.544;2023-01-27T07:32:13;98057.34;;;0.43;86.63
56182;BME280;51963;46.052;14.544;2023-01-27T07:34:38;98060.69;;;0.55;86.21
56182;BME280;51963;46.052;14.544;2023-01-27T07:37:04;98058.97;;;0.65;86.03
56182;BME280;51963;46.052;14.544;2023-01-27T07:39:30;98065.28;;;0.72;86.07
56182;BME280;51963;46.052;14.544;2023-01-27T07:41:55;98066.13;;;0.83;85.50
56182;BME280;51963;46.052;14.544;2023-01-27T07:44:23;98065.34;;;0.92;85.34
56182;BME280;51963;46.052;14.544;2023-01-27T07:46:49;98062.63;;;1.04;84.47
56182;BME280;51963;46.052;14.544;2023-01-27T07:49:14;98077.56;;;1.21;83.75
56182;BME280;51963;46.052;14.544;2023-01-27T07:51:40;98066.47;;;1.29;83.39
56182;BME280;51963;46.052;14.544;2023-01-27T07:54:05;98081.28;;;1.28;83.29
56182;BME280;51963;46.052;14.544;2023-01-27T07:56:31;98070.59;;;1.41;83.43
56182;BME280;51963;46.052;14.544;2023-01-27T07:58:57;98077.72;;;1.29;82.78
56182;BME280;51963;46.052;14.544;2023-01-27T08:01:22;98076.09;;;1.48;82.54
56182;BME280;51963;46.052;14.544;2023-01-27T08:03:48;98080.72;;;1.44;82.73
56182;BME280;51963;46.052;14.544;2023-01-27T08:06:13;98079.53;;;1.58;82.61
56182;BME280;51963;46.052;14.544;2023-01-27T08:08:39;98078.84;;;1.56;82.63
56182;BME280;51963;46.052;14.544;2023-01-27T08:11:06;98075.38;;;1.56;82.55
56182;BME280;51963;46.052;14.544;2023-01-27T08:13:33;98085.53;;;1.59;82.27
56182;BME280;51963;46.052;14.544;2023-01-27T08:16:02;98086.66;;;1.76;82.09
56182;BME280;51963;46.052;14.544;2023-01-27T08:18:30;98085.56;;;1.69;82.00
56182;BME280;51963;46.052;14.544;2023-01-27T08:21:01;98079.50;;;1.68;82.45
56182;BME280;51963;46.052;14.544;2023-01-27T08:23:27;98081.44;;;1.76;82.32
56182;BME280;51963;46.052;14.544;2023-01-27T08:25:54;98091.59;;;1.79;82.54
56182;BME280;51963;46.052;14.544;2023-01-27T08:28:20;98087.59;;;1.85;81.69
56182;BME280;51963;46.052;14.544;2023-01-27T08:30:46;98089.53;;;1.73;81.61
56182;BME280;51963;46.052;14.544;2023-01-27T08:33:12;98087.59;;;1.85;81.77
56182;BME280;51963;46.052;14.544;2023-01-27T08:35:38;98093.34;;;1.98;81.30
56182;BME280;51963;46.052;14.544;2023-01-27T08:38:07;98088.13;;;2.08;81.07
56182;BME280;51963;46.052;14.544;2023-01-27T08:40:32;98091.25;;;2.22;81.30
56182;BME280;51963;46.052;14.544;2023-01-27T08:42:58;98095.44;;;2.42;80.29
56182;BME280;51963;46.052;14.544;2023-01-27T08:45:26;98096.56;;;2.30;79.93
56182;BME280;51963;46.052;14.544;2023-01-27T08:47:51;98102.25;;;2.05;81.31
56182;BME280;51963;46.052;14.544;2023-01-27T08:50:17;98105.13;;;2.12;81.66
56182;BME280;51963;46.052;14.544;2023-01-27T08:52:42;98097.66;;;2.37;80.46
56182;BME280;51963;46.052;14.544;2023-01-27T08:55:08;98109.69;;;2.48;80.27
56182;BME280;51963;46.052;14.544;2023-01-27T08:57:34;98105.03;;;2.42;80.05
56182;BME280;51963;46.052;14.544;2023-01-27T08:59:59;98114.94;;;2.38;79.32
56182;BME280;51963;46.052;14.544;2023-01-27T09:02:24;98116.59;;;2.39;79.26
56182;BME280;51963;46.052;14.544;2023-01-27T09:04:51;98115.97;;;2.55;79.06
56182;BME280;51963;46.052;14.544;2023-01-27T09:07:16;98116.03;;;2.35;79.35
56182;BME280;51963;46.052;14.544;2023-01-27T09:09:44;98119.44;;;2.46;79.30
56182;BME280;51963;46.052;14.544;2023-01-27T09:12:10;98119.03;;;2.51;79.38
56182;BME280;51963;46.052;14.544;2023-01-27T09:14:35;98124.53;;;2.47;79.38
56182;BME280;51963;46.052;14.544;2023-01-27T09:17:01;98126.47;;;2.45;79.20
56182;BME280;51963;46.052;14.544;2023-01-27T09:19:27;98123.88;;;2.35;78.54
56182;BME280;51963;46.052;14.544;2023-01-27T09:21:52;98125.66;;;2.35;78.72
56182;BME280;51963;46.052;14.544;2023-01-27T09:24:18;98122.66;;;2.30;79.11
56182;BME280;51963;46.052;14.544;2023-01-27T09:26:44;98130.84;;;2.45;78.01
56182;BME280;51963;46.052;14.544;2023-01-27T09:29:10;98135.28;;;2.34;76.86
56182;BME280;51963;46.052;14.544;2023-01-27T09:31:36;98135.53;;;2.41;77.01
56182;BME280;51963;46.052;14.544;2023-01-27T09:34:01;98138.31;;;2.30;78.06
56182;BME280;51963;46.052;14.544;2023-01-27T09:36:28;98137.66;;;2.08;77.48
56182;BME280;51963;46.052;14.544;2023-01-27T09:39:00;98136.81;;;2.17;78.09
56182;BME280;51963;46.052;14.544;2023-01-27T10:17:36;98093.25;;;3.03;73.68
56182;BME280;51963;46.052;14.544;2023-01-27T10:20:08;98100.38;;;3.11;73.40
56182;BME280;51963;46.052;14.544;2023-01-27T10:25:25;98086.66;;;3.63;71.97
56182;BME280;51963;46.052;14.544;2023-01-27T10:27:55;98078.19;;;3.88;71.33
56182;BME280;51963;46.052;14.544;2023-01-27T10:30:32;98079.38;;;3.93;71.14
56182;BME280;51963;46.052;14.544;2023-01-27T10:44:09;98063.69;;;5.57;63.90
56182;BME280;51963;46.052;14.544;2023-01-27T10:49:22;98053.78;;;6.82;58.66
56182;BME280;51963;46.052;14.544;2023-01-27T10:54:29;98045.31;;;7.03;56.55
56182;BME280;51963;46.052;14.544;2023-01-27T10:57:40;98056.72;;;7.18;55.97
56182;BME280;51963;46.052;14.544;2023-01-27T10:59:47;98054.50;;;6.11;57.98
56182;BME280;51963;46.052;14.544;2023-01-27T11:04:51;98048.59;;;5.76;59.26
56182;BME280;51963;46.052;14.544;2023-01-27T11:07:18;98044.66;;;5.55;60.33
56182;BME280;51963;46.052;14.544;2023-01-27T11:12:16;98044.44;;;4.64;61.94
56182;BME280;51963;46.052;14.544;2023-01-27T11:14:48;98034.22;;;4.87;62.29
56182;BME280;51963;46.052;14.544;2023-01-27T11:17:16;98037.22;;;4.58;63.42
56182;BME280;51963;46.052;14.544;2023-01-27T11:25:05;98020.41;;;5.45;60.76
56182;BME280;51963;46.052;14.544;2023-01-27T11:30:03;98012.47;;;6.19;59.31
56182;BME280;51963;46.052;14.544;2023-01-27T11:32:35;98006.78;;;6.55;59.06
56182;BME280;51963;46.052;14.544;2023-01-27T11:35:13;98005.94;;;6.15;56.92
56182;BME280;51963;46.052;14.544;2023-01-27T11:37:43;98010.44;;;7.32;55.98
56182;BME280;51963;46.052;14.544;2023-01-27T11:42:38;98008.19;;;8.51;52.82
56182;BME280;51963;46.052;14.544;2023-01-27T11:45:04;97999.00;;;9.35;49.93
56182;BME280;51963;46.052;14.544;2023-01-27T11:47:34;97976.13;;;8.62;49.48
56182;BME280;51963;46.052;14.544;2023-01-27T11:50:01;98003.84;;;8.58;50.71
56182;BME280;51963;46.052;14.544;2023-01-27T11:52:28;97989.25;;;9.36;47.86
56182;BME280;51963;46.052;14.544;2023-01-27T11:54:56;97982.44;;;9.98;47.06
56182;BME280;51963;46.052;14.544;2023-01-27T11:57:25;97979.53;;;9.65;45.69
56182;BME280;51963;46.052;14.544;2023-01-27T12:00:17;97983.69;;;9.52;46.21
56182;BME280;51963;46.052;14.544;2023-01-27T12:02:41;97988.28;;;8.63;47.67
56182;BME280;51963;46.052;14.544;2023-01-27T12:05:18;97974.91;;;9.02;46.40
56182;BME280;51963;46.052;14.544;2023-01-27T12:07:50;97973.16;;;9.31;46.06
56182;BME280;51963;46.052;14.544;2023-01-27T12:12:45;97972.66;;;9.99;44.87
56182;BME280;51963;46.052;14.544;2023-01-27T12:15:13;97966.00;;;9.03;44.53
56182;BME280;51963;46.052;14.544;2023-01-27T12:17:40;97961.47;;;8.45;45.10
56182;BME280;51963;46.052;14.544;2023-01-27T12:22:51;97957.53;;;8.86;44.53
56182;BME280;51963;46.052;14.544;2023-01-27T12:25:21;97953.50;;;8.38;43.99
56182;BME280;51963;46.052;14.544;2023-01-27T12:27:54;97958.50;;;8.63;46.01
56182;BME280;51963;46.052;14.544;2023-01-27T12:30:21;97944.50;;;8.32;44.78
56182;BME280;51963;46.052;14.544;2023-01-27T12:32:48;97943.16;;;8.88;43.89
56182;BME280;51963;46.052;14.544;2023-01-27T12:35:22;97943.22;;;8.95;44.45
56182;BME280;51963;46.052;14.544;2023-01-27T12:37:48;97940.75;;;9.37;43.91
56182;BME280;51963;46.052;14.544;2023-01-27T12:40:20;97935.75;;;9.77;42.88
56182;BME280;51963;46.052;14.544;2023-01-27T12:43:02;97943.03;;;8.97;43.37
56182;BME280;51963;46.052;14.544;2023-01-27T12:45:29;97942.09;;;9.04;44.30
56182;BME280;51963;46.052;14.544;2023-01-27T12:48:16;97930.72;;;9.04;44.11
56182;BME280;51963;46.052;14.544;2023-01-27T12:50:42;97925.94;;;9.64;42.83
56182;BME280;51963;46.052;14.544;2023-01-27T13:00:53;97929.31;;;9.87;41.99
56182;BME280;51963;46.052;14.544;2023-01-27T13:03:19;97926.53;;;9.09;42.60
56182;BME280;51963;46.052;14.544;2023-01-27T13:05:53;97924.63;;;8.60;44.31
56182;BME280;51963;46.052;14.544;2023-01-27T13:08:19;97933.97;;;9.06;45.00
56182;BME280;51963;46.052;14.544;2023-01-27T13:10:52;97930.47;;;9.20;43.70
56182;BME280;51963;46.052;14.544;2023-01-27T13:13:23;97924.63;;;8.82;44.30
56182;BME280;51963;46.052;14.544;2023-01-27T13:15:56;97931.72;;;7.84;46.04
56182;BME280;51963;46.052;14.544;2023-01-27T13:18:28;97928.72;;;8.02;46.16
56182;BME280;51963;46.052;14.544;2023-01-27T13:20:58;97926.19;;;7.94;46.44
56182;BME280;51963;46.052;14.544;2023-01-27T13:23:33;97927.63;;;6.58;48.78
56182;BME280;51963;46.052;14.544;2023-01-27T13:31:16;97935.00;;;5.01;53.57
56182;BME280;51963;46.052;14.544;2023-01-27T13:42:09;97929.94;;;5.07;54.74
56182;BME280;51963;46.052;14.544;2023-01-27T13:47:00;97930.09;;;4.81;54.95
56182;BME280;51963;46.052;14.544;2023-01-27T13:49:35;97928.34;;;4.38;55.23
56182;BME280;51963;46.052;14.544;2023-01-27T13:52:03;97927.38;;;4.05;56.01
56182;BME280;51963;46.052;14.544;2023-01-27T13:54:29;97936.19;;;4.38;55.99
56182;BME280;51963;46.052;14.544;2023-01-27T13:57:07;97922.66;;;4.51;55.51
56182;BME280;51963;46.052;14.544;2023-01-27T13:59:41;97932.19;;;4.77;54.10
56182;BME280;51963;46.052;14.544;2023-01-27T14:05:07;97927.75;;;4.61;54.34
56182;BME280;51963;46.052;14.544;2023-01-27T14:10:34;97929.44;;;4.28;54.86
56182;BME280;51963;46.052;14.544;2023-01-27T14:13:18;97925.59;;;4.57;54.83
56182;BME280;51963;46.052;14.544;2023-01-27T14:16:12;97931.81;;;4.04;54.48
56182;BME280;51963;46.052;14.544;2023-01-27T14:18:43;97930.00;;;4.05;55.42
56182;BME280;51963;46.052;14.544;2023-01-27T14:21:20;97937.78;;;4.23;54.29
56182;BME280;51963;46.052;14.544;2023-01-27T14:23:59;97918.53;;;4.40;53.54
56182;BME280;51963;46.052;14.544;2023-01-27T14:26:40;97919.19;;;4.34;54.01
56182;BME280;51963;46.052;14.544;2023-01-27T14:42:17;97942.38;;;4.97;53.14
56182;BME280;51963;46.052;14.544;2023-01-27T14:44:55;97941.38;;;4.81;53.13
56182;BME280;51963;46.052;14.544;2023-01-27T14:57:26;97942.63;;;3.48;57.05
56182;BME280;51963;46.052;14.544;2023-01-27T15:05:09;97941.41;;;3.43;59.74
56182;BME280;51963;46.052;14.544;2023-01-27T15:07:41;97959.22;;;3.21;60.31
56182;BME280;51963;46.052;14.544;2023-01-27T15:10:29;97959.38;;;3.01;62.29
56182;BME280;51963;46.052;14.544;2023-01-27T15:15:39;97963.31;;;2.69;62.88
56182;BME280;51963;46.052;14.544;2023-01-27T15:26:21;97975.50;;;2.51;66.08
56182;BME280;51963;46.052;14.544;2023-01-27T15:28:54;97987.78;;;2.40;66.37
56182;BME280;51963;46.052;14.544;2023-01-27T15:31:24;97982.88;;;2.27;66.52